sensor_id;sensor_type;location;lat;lon;timestamp;P1;durP1;ratioP1;P2;durP2;ratioP2
14688;SDS011;7432;48.728;9.154;2024-03-29T00:00:46;8.63;;;8.13;;
14688;SDS011;7432;48.728;9.154;2024-03-29T00:03:12;8.70;;;8.17;;
14688;SDS011;7432;48.728;9.154;2024-03-29T00:05:37;8.60;;;8.00;;
14688;SDS011;7432;48.728;9.154;2024-03-29T00:08:05;8.87;;;8.17;;
14688;SDS011;7432;48.728;9.154;2024-03-29T00:10:31;8.70;;;8.10;;
14688;SDS011;7432;48.728;9.154;2024-03-29T00:12:57;9.30;;;8.70;;
14688;SDS011;7432;48.728;9.154;2024-03-29T00:15:22;8.20;;;7.70;;
14688;SDS011;7432;48.728;9.154;2024-03-29T00:17:48;8.83;;;8.27;;
14688;SDS011;7432;48.728;9.154;2024-03-29T00:20:13;9.20;;;8.60;;
14688;SDS011;7432;48.728;9.154;2024-03-29T00:22:39;9.37;;;8.70;;
14688;SDS011;7432;48.728;9.154;2024-03-29T00:25:06;9.30;;;8.70;;
14688;SDS011;7432;48.728;9.154;2024-03-29T00:27:32;8.87;;;8.20;;
14688;SDS011;7432;48.728;9.154;2024-03-29T00:29:57;9.10;;;8.60;;
14688;SDS011;7432;48.728;9.154;2024-03-29T00:32:23;8.47;;;7.97;;
14688;SDS011;7432;48.728;9.154;2024-03-29T00:34:49;9.10;;;8.60;;
14688;SDS011;7432;48.728;9.154;2024-03-29T00:37:15;8.33;;;7.77;;
14688;SDS011;7432;48.728;9.154;2024-03-29T00:39:41;9.40;;;8.60;;
14688;SDS011;7432;48.728;9.154;2024-03-29T00:42:08;9.03;;;8.53;;
14688;SDS011;7432;48.728;9.154;2024-03-29T00:44:34;9.37;;;8.70;;
14688;SDS011;7432;48.728;9.154;2024-03-29T00:46:59;8.97;;;8.37;;
14688;SDS011;7432;48.728;9.154;2024-03-29T00:49:25;9.50;;;8.83;;
14688;SDS011;7432;48.728;9.154;2024-03-29T00:51:50;8.70;;;8.10;;
14688;SDS011;7432;48.728;9.154;2024-03-29T00:54:16;9.30;;;8.40;;
14688;SDS011;7432;48.728;9.154;2024-03-29T00:56:41;9.33;;;8.77;;
14688;SDS011;7432;48.728;9.154;2024-03-29T00:59:08;9.20;;;8.70;;
14688;SDS011;7432;48.728;9.154;2024-03-29T01:01:33;9.03;;;8.50;;
14688;SDS011;7432;48.728;9.154;2024-03-29T01:03:59;8.33;;;7.93;;
14688;SDS011;7432;48.728;9.154;2024-03-29T01:06:24;9.57;;;8.80;;
14688;SDS011;7432;48.728;9.154;2024-03-29T01:08:50;8.90;;;8.40;;
14688;SDS011;7432;48.728;9.154;2024-03-29T01:11:15;9.47;;;8.67;;
14688;SDS011;7432;48.728;9.154;2024-03-29T01:13:41;8.73;;;8.23;;
14688;SDS011;7432;48.728;9.154;2024-03-29T01:16:08;8.60;;;8.10;;
14688;SDS011;7432;48.728;9.154;2024-03-29T01:18:33;9.10;;;8.60;;
14688;SDS011;7432;48.728;9.154;2024-03-29T01:20:59;8.50;;;8.00;;
14688;SDS011;7432;48.728;9.154;2024-03-29T01:23:24;8.87;;;8.37;;
14688;SDS011;7432;48.728;9.154;2024-03-29T01:25:50;9.07;;;8.57;;
14688;SDS011;7432;48.728;9.154;2024-03-29T01:28:15;9.00;;;8.50;;
14688;SDS011;7432;48.728;9.154;2024-03-29T01:30:41;9.10;;;8.43;;
14688;SDS011;7432;48.728;9.154;2024-03-29T01:33:08;8.67;;;8.13;;
14688;SDS011;7432;48.728;9.154;2024-03-29T01:35:33;9.00;;;8.50;;
14688;SDS011;7432;48.728;9.154;2024-03-29T01:37:59;8.73;;;8.23;;
14688;SDS011;7432;48.728;9.154;2024-03-29T01:40:24;9.23;;;8.73;;
14688;SDS011;7432;48.728;9.154;2024-03-29T01:42:52;9.20;;;8.70;;
14688;SDS011;7432;48.728;9.154;2024-03-29T01:45:18;9.13;;;8.60;;
14688;SDS011;7432;48.728;9.154;2024-03-29T01:47:44;9.43;;;8.83;;
14688;SDS011;7432;48.728;9.154;2024-03-29T01:50:12;9.00;;;8.40;;
14688;SDS011;7432;48.728;9.154;2024-03-29T01:52:39;8.87;;;8.37;;
14688;SDS011;7432;48.728;9.154;2024-03-29T01:55:06;8.70;;;8.27;;
14688;SDS011;7432;48.728;9.154;2024-03-29T01:57:33;8.93;;;8.33;;
14688;SDS011;7432;48.728;9.154;2024-03-29T01:59:59;9.17;;;8.60;;
14688;SDS011;7432;48.728;9.154;2024-03-29T02:02:30;8.23;;;7.83;;
14688;SDS011;7432;48.728;9.154;2024-03-29T02:04:57;8.47;;;7.97;;
14688;SDS011;7432;48.728;9.154;2024-03-29T02:07:25;8.77;;;8.27;;
14688;SDS011;7432;48.728;9.154;2024-03-29T02:09:51;8.90;;;8.40;;
14688;SDS011;7432;48.728;9.154;2024-03-29T02:12:18;8.70;;;8.30;;
14688;SDS011;7432;48.728;9.154;2024-03-29T02:14:44;9.00;;;8.40;;
14688;SDS011;7432;48.728;9.154;2024-03-29T02:17:10;8.67;;;8.17;;
14688;SDS011;7432;48.728;9.154;2024-03-29T02:19:37;8.87;;;8.40;;
14688;SDS011;7432;48.728;9.154;2024-03-29T02:22:03;9.23;;;8.53;;
14688;SDS011;7432;48.728;9.154;2024-03-29T02:24:32;9.07;;;8.57;;
14688;SDS011;7432;48.728;9.154;2024-03-29T02:26:59;9.23;;;8.67;;
14688;SDS011;7432;48.728;9.154;2024-03-29T02:29:26;9.13;;;8.63;;
14688;SDS011;7432;48.728;9.154;2024-03-29T02:31:52;9.37;;;8.87;;
14688;SDS011;7432;48.728;9.154;2024-03-29T02:34:18;9.00;;;8.47;;
14688;SDS011;7432;48.728;9.154;2024-03-29T02:36:45;9.07;;;8.60;;
14688;SDS011;7432;48.728;9.154;2024-03-29T02:39:11;9.23;;;8.73;;
14688;SDS011;7432;48.728;9.154;2024-03-29T02:41:39;8.93;;;8.33;;
14688;SDS011;7432;48.728;9.154;2024-03-29T02:44:05;8.80;;;8.30;;
14688;SDS011;7432;48.728;9.154;2024-03-29T02:46:31;8.70;;;8.10;;
14688;SDS011;7432;48.728;9.154;2024-03-29T02:48:58;8.67;;;8.27;;
14688;SDS011;7432;48.728;9.154;2024-03-29T02:51:23;9.00;;;8.50;;
14688;SDS011;7432;48.728;9.154;2024-03-29T02:53:49;9.30;;;8.80;;
14688;SDS011;7432;48.728;9.154;2024-03-29T02:56:15;8.80;;;8.40;;
14688;SDS011;7432;48.728;9.154;2024-03-29T02:58:47;9.00;;;8.50;;
14688;SDS011;7432;48.728;9.154;2024-03-29T03:01:12;8.87;;;8.27;;
14688;SDS011;7432;48.728;9.154;2024-03-29T03:03:39;8.97;;;8.57;;
14688;SDS011;7432;48.728;9.154;2024-03-29T03:06:04;9.00;;;8.50;;
14688;SDS011;7432;48.728;9.154;2024-03-29T03:08:31;8.93;;;8.43;;
14688;SDS011;7432;48.728;9.154;2024-03-29T03:11:15;9.33;;;8.60;;
14688;SDS011;7432;48.728;9.154;2024-03-29T03:13:42;8.97;;;8.50;;
14688;SDS011;7432;48.728;9.154;2024-03-29T03:16:09;8.80;;;8.40;;
14688;SDS011;7432;48.728;9.154;2024-03-29T03:18:36;9.03;;;8.53;;
14688;SDS011;7432;48.728;9.154;2024-03-29T03:21:01;9.20;;;8.60;;
14688;SDS011;7432;48.728;9.154;2024-03-29T03:23:28;8.63;;;8.23;;
14688;SDS011;7432;48.728;9.154;2024-03-29T03:25:53;9.20;;;8.60;;
14688;SDS011;7432;48.728;9.154;2024-03-29T03:28:20;9.17;;;8.67;;
14688;SDS011;7432;48.728;9.154;2024-03-29T03:30:47;9.23;;;8.60;;
14688;SDS011;7432;48.728;9.154;2024-03-29T03:33:14;9.17;;;8.67;;
14688;SDS011;7432;48.728;9.154;2024-03-29T03:35:41;9.37;;;8.80;;
14688;SDS011;7432;48.728;9.154;2024-03-29T03:38:06;8.80;;;8.40;;
14688;SDS011;7432;48.728;9.154;2024-03-29T03:40:33;8.70;;;8.30;;
14688;SDS011;7432;48.728;9.154;2024-03-29T03:42:58;9.30;;;8.80;;
14688;SDS011;7432;48.728;9.154;2024-03-29T03:45:25;8.83;;;8.43;;
14688;SDS011;7432;48.728;9.154;2024-03-29T03:47:50;9.60;;;9.00;;
14688;SDS011;7432;48.728;9.154;2024-03-29T03:50:18;9.00;;;8.60;;
14688;SDS011;7432;48.728;9.154;2024-03-29T03:52:43;9.33;;;8.83;;
14688;SDS011;7432;48.728;9.154;2024-03-29T03:55:09;9.00;;;8.50;;
14688;SDS011;7432;48.728;9.154;2024-03-29T03:57:35;9.60;;;9.10;;
14688;SDS011;7432;48.728;9.154;2024-03-29T04:00:01;9.53;;;8.90;;
14688;SDS011;7432;48.728;9.154;2024-03-29T04:02:28;9.13;;;8.53;;
14688;SDS011;7432;48.728;9.154;2024-03-29T04:04:54;8.80;;;8.40;;
14688;SDS011;7432;48.728;9.154;2024-03-29T04:07:21;8.80;;;8.40;;
14688;SDS011;7432;48.728;9.154;2024-03-29T04:09:50;9.10;;;8.70;;
14688;SDS011;7432;48.728;9.154;2024-03-29T04:12:15;9.47;;;8.90;;
14688;SDS011;7432;48.728;9.154;2024-03-29T04:14:42;8.57;;;8.17;;
14688;SDS011;7432;48.728;9.154;2024-03-29T04:17:07;8.90;;;8.50;;
14688;SDS011;7432;48.728;9.154;2024-03-29T04:19:33;8.67;;;8.27;;
14688;SDS011;7432;48.728;9.154;2024-03-29T04:21:59;8.57;;;8.17;;
14688;SDS011;7432;48.728;9.154;2024-03-29T04:24:26;8.90;;;8.50;;
14688;SDS011;7432;48.728;9.154;2024-03-29T04:26:52;8.77;;;8.37;;
14688;SDS011;7432;48.728;9.154;2024-03-29T04:29:19;8.87;;;8.47;;
14688;SDS011;7432;48.728;9.154;2024-03-29T04:31:44;8.97;;;8.57;;
14688;SDS011;7432;48.728;9.154;2024-03-29T04:34:11;9.10;;;8.57;;
14688;SDS011;7432;48.728;9.154;2024-03-29T04:36:36;9.27;;;8.80;;
14688;SDS011;7432;48.728;9.154;2024-03-29T04:39:03;8.73;;;8.23;;
14688;SDS011;7432;48.728;9.154;2024-03-29T04:41:30;9.03;;;8.53;;
14688;SDS011;7432;48.728;9.154;2024-03-29T04:43:59;8.87;;;8.47;;
14688;SDS011;7432;48.728;9.154;2024-03-29T04:46:25;8.97;;;8.57;;
14688;SDS011;7432;48.728;9.154;2024-03-29T04:48:52;8.87;;;8.37;;
14688;SDS011;7432;48.728;9.154;2024-03-29T04:51:18;8.90;;;8.50;;
14688;SDS011;7432;48.728;9.154;2024-03-29T04:53:44;9.40;;;8.80;;
14688;SDS011;7432;48.728;9.154;2024-03-29T04:56:11;9.13;;;8.63;;
14688;SDS011;7432;48.728;9.154;2024-03-29T04:58:38;9.13;;;8.47;;
14688;SDS011;7432;48.728;9.154;2024-03-29T05:01:05;9.30;;;8.80;;
14688;SDS011;7432;48.728;9.154;2024-03-29T05:03:32;9.30;;;8.80;;
14688;SDS011;7432;48.728;9.154;2024-03-29T05:05:58;9.10;;;8.60;;
14688;SDS011;7432;48.728;9.154;2024-03-29T05:08:24;8.97;;;8.57;;
14688;SDS011;7432;48.728;9.154;2024-03-29T05:10:51;8.47;;;8.07;;
14688;SDS011;7432;48.728;9.154;2024-03-29T05:13:18;9.37;;;8.87;;
14688;SDS011;7432;48.728;9.154;2024-03-29T05:15:46;9.37;;;8.77;;
14688;SDS011;7432;48.728;9.154;2024-03-29T05:18:13;9.20;;;8.70;;
14688;SDS011;7432;48.728;9.154;2024-03-29T05:20:39;9.53;;;9.03;;
14688;SDS011;7432;48.728;9.154;2024-03-29T05:23:11;9.00;;;8.60;;
14688;SDS011;7432;48.728;9.154;2024-03-29T05:25:39;9.30;;;8.80;;
14688;SDS011;7432;48.728;9.154;2024-03-29T05:28:05;9.37;;;8.77;;
14688;SDS011;7432;48.728;9.154;2024-03-29T05:30:32;9.37;;;8.87;;
14688;SDS011;7432;48.728;9.154;2024-03-29T05:33:02;9.07;;;8.47;;
14688;SDS011;7432;48.728;9.154;2024-03-29T05:35:28;8.87;;;8.47;;
14688;SDS011;7432;48.728;9.154;2024-03-29T05:37:54;9.87;;;9.33;;
14688;SDS011;7432;48.728;9.154;2024-03-29T05:40:21;9.83;;;9.30;;
14688;SDS011;7432;48.728;9.154;2024-03-29T05:42:50;9.77;;;9.17;;
14688;SDS011;7432;48.728;9.154;2024-03-29T05:45:22;9.33;;;8.83;;
14688;SDS011;7432;48.728;9.154;2024-03-29T05:47:50;9.47;;;8.97;;
14688;SDS011;7432;48.728;9.154;2024-03-29T05:50:18;9.57;;;9.07;;
14688;SDS011;7432;48.728;9.154;2024-03-29T05:52:44;8.73;;;8.23;;
14688;SDS011;7432;48.728;9.154;2024-03-29T05:55:10;8.90;;;8.50;;
14688;SDS011;7432;48.728;9.154;2024-03-29T05:57:37;9.40;;;8.90;;
14688;SDS011;7432;48.728;9.154;2024-03-29T06:00:06;8.93;;;8.50;;
14688;SDS011;7432;48.728;9.154;2024-03-29T06:02:34;9.03;;;8.53;;
14688;SDS011;7432;48.728;9.154;2024-03-29T06:05:00;8.60;;;8.17;;
14688;SDS011;7432;48.728;9.154;2024-03-29T06:07:28;8.87;;;8.37;;
14688;SDS011;7432;48.728;9.154;2024-03-29T06:09:56;7.77;;;7.37;;
14688;SDS011;7432;48.728;9.154;2024-03-29T06:12:22;8.57;;;8.17;;
14688;SDS011;7432;48.728;9.154;2024-03-29T06:14:48;8.43;;;7.93;;
14688;SDS011;7432;48.728;9.154;2024-03-29T06:17:32;7.97;;;7.57;;
14688;SDS011;7432;48.728;9.154;2024-03-29T06:20:00;8.60;;;8.00;;
14688;SDS011;7432;48.728;9.154;2024-03-29T06:22:30;8.60;;;8.20;;
14688;SDS011;7432;48.728;9.154;2024-03-29T06:24:56;8.47;;;8.07;;
14688;SDS011;7432;48.728;9.154;2024-03-29T06:27:24;9.30;;;8.70;;
14688;SDS011;7432;48.728;9.154;2024-03-29T06:29:50;8.57;;;8.17;;
14688;SDS011;7432;48.728;9.154;2024-03-29T06:32:17;8.40;;;8.00;;
14688;SDS011;7432;48.728;9.154;2024-03-29T06:34:44;8.90;;;8.33;;
14688;SDS011;7432;48.728;9.154;2024-03-29T06:37:10;8.30;;;7.90;;
14688;SDS011;7432;48.728;9.154;2024-03-29T06:39:38;8.40;;;8.00;;
14688;SDS011;7432;48.728;9.154;2024-03-29T06:42:05;8.20;;;7.80;;
14688;SDS011;7432;48.728;9.154;2024-03-29T06:44:33;8.23;;;7.70;;
14688;SDS011;7432;48.728;9.154;2024-03-29T06:46:59;8.00;;;7.60;;
14688;SDS011;7432;48.728;9.154;2024-03-29T06:49:26;8.53;;;8.07;;
14688;SDS011;7432;48.728;9.154;2024-03-29T06:51:52;8.87;;;8.37;;
14688;SDS011;7432;48.728;9.154;2024-03-29T06:54:18;8.73;;;8.33;;
14688;SDS011;7432;48.728;9.154;2024-03-29T06:56:48;8.87;;;8.47;;
14688;SDS011;7432;48.728;9.154;2024-03-29T06:59:14;8.03;;;7.63;;
14688;SDS011;7432;48.728;9.154;2024-03-29T07:01:41;8.57;;;8.17;;
14688;SDS011;7432;48.728;9.154;2024-03-29T07:04:07;8.40;;;8.00;;
14688;SDS011;7432;48.728;9.154;2024-03-29T07:06:33;8.20;;;7.80;;
14688;SDS011;7432;48.728;9.154;2024-03-29T07:09:02;8.20;;;7.80;;
14688;SDS011;7432;48.728;9.154;2024-03-29T07:11:29;8.20;;;7.80;;
14688;SDS011;7432;48.728;9.154;2024-03-29T07:13:57;8.00;;;7.60;;
14688;SDS011;7432;48.728;9.154;2024-03-29T07:16:23;8.60;;;8.10;;
14688;SDS011;7432;48.728;9.154;2024-03-29T07:18:49;8.20;;;7.80;;
14688;SDS011;7432;48.728;9.154;2024-03-29T07:21:16;7.60;;;7.10;;
14688;SDS011;7432;48.728;9.154;2024-03-29T07:23:42;8.20;;;7.80;;
14688;SDS011;7432;48.728;9.154;2024-03-29T07:26:08;8.27;;;7.77;;
14688;SDS011;7432;48.728;9.154;2024-03-29T07:28:36;8.07;;;7.67;;
14688;SDS011;7432;48.728;9.154;2024-03-29T07:31:07;7.90;;;7.50;;
14688;SDS011;7432;48.728;9.154;2024-03-29T07:33:34;8.37;;;7.77;;
14688;SDS011;7432;48.728;9.154;2024-03-29T07:36:00;8.33;;;7.83;;
14688;SDS011;7432;48.728;9.154;2024-03-29T07:38:27;7.97;;;7.57;;
14688;SDS011;7432;48.728;9.154;2024-03-29T07:40:55;8.70;;;8.20;;
14688;SDS011;7432;48.728;9.154;2024-03-29T07:43:21;8.60;;;8.10;;
14688;SDS011;7432;48.728;9.154;2024-03-29T07:45:48;8.40;;;7.80;;
14688;SDS011;7432;48.728;9.154;2024-03-29T07:48:16;8.30;;;7.80;;
14688;SDS011;7432;48.728;9.154;2024-03-29T07:50:44;7.70;;;7.30;;
14688;SDS011;7432;48.728;9.154;2024-03-29T07:53:11;7.50;;;7.10;;
14688;SDS011;7432;48.728;9.154;2024-03-29T07:55:38;8.20;;;7.70;;
14688;SDS011;7432;48.728;9.154;2024-03-29T07:58:06;8.20;;;7.60;;
14688;SDS011;7432;48.728;9.154;2024-03-29T08:00:34;8.50;;;8.03;;
14688;SDS011;7432;48.728;9.154;2024-03-29T08:03:01;8.83;;;8.30;;
14688;SDS011;7432;48.728;9.154;2024-03-29T08:05:28;8.33;;;7.83;;
14688;SDS011;7432;48.728;9.154;2024-03-29T08:07:55;8.83;;;8.27;;
14688;SDS011;7432;48.728;9.154;2024-03-29T08:10:21;9.10;;;8.50;;
14688;SDS011;7432;48.728;9.154;2024-03-29T08:12:48;9.27;;;8.67;;
14688;SDS011;7432;48.728;9.154;2024-03-29T08:15:14;10.10;;;9.27;;
14688;SDS011;7432;48.728;9.154;2024-03-29T08:17:43;9.43;;;8.83;;
14688;SDS011;7432;48.728;9.154;2024-03-29T08:20:09;9.33;;;8.73;;
14688;SDS011;7432;48.728;9.154;2024-03-29T08:22:37;9.83;;;9.13;;
14688;SDS011;7432;48.728;9.154;2024-03-29T08:25:04;9.67;;;9.07;;
14688;SDS011;7432;48.728;9.154;2024-03-29T08:27:31;9.90;;;9.30;;
14688;SDS011;7432;48.728;9.154;2024-03-29T08:29:58;9.70;;;9.10;;
14688;SDS011;7432;48.728;9.154;2024-03-29T08:32:24;8.50;;;8.00;;
14688;SDS011;7432;48.728;9.154;2024-03-29T08:34:50;8.43;;;7.83;;
14688;SDS011;7432;48.728;9.154;2024-03-29T08:37:18;8.70;;;8.00;;
14688;SDS011;7432;48.728;9.154;2024-03-29T08:39:46;8.47;;;7.97;;
14688;SDS011;7432;48.728;9.154;2024-03-29T08:42:12;8.37;;;7.77;;
14688;SDS011;7432;48.728;9.154;2024-03-29T08:44:38;8.80;;;8.07;;
14688;SDS011;7432;48.728;9.154;2024-03-29T08:47:05;8.20;;;7.60;;
14688;SDS011;7432;48.728;9.154;2024-03-29T08:49:32;9.20;;;8.30;;
14688;SDS011;7432;48.728;9.154;2024-03-29T08:51:58;10.60;;;9.53;;
14688;SDS011;7432;48.728;9.154;2024-03-29T08:54:27;9.77;;;8.93;;
14688;SDS011;7432;48.728;9.154;2024-03-29T08:56:55;8.87;;;8.07;;
14688;SDS011;7432;48.728;9.154;2024-03-29T08:59:22;8.77;;;8.00;;
14688;SDS011;7432;48.728;9.154;2024-03-29T09:01:48;9.53;;;8.80;;
14688;SDS011;7432;48.728;9.154;2024-03-29T09:04:15;7.80;;;7.23;;
14688;SDS011;7432;48.728;9.154;2024-03-29T09:06:41;7.83;;;7.27;;
14688;SDS011;7432;48.728;9.154;2024-03-29T09:09:08;7.77;;;7.30;;
14688;SDS011;7432;48.728;9.154;2024-03-29T09:11:35;8.40;;;7.80;;
14688;SDS011;7432;48.728;9.154;2024-03-29T09:14:03;7.87;;;7.37;;
14688;SDS011;7432;48.728;9.154;2024-03-29T09:16:29;7.67;;;7.27;;
14688;SDS011;7432;48.728;9.154;2024-03-29T09:18:56;7.73;;;7.13;;
14688;SDS011;7432;48.728;9.154;2024-03-29T09:21:22;7.73;;;7.23;;
14688;SDS011;7432;48.728;9.154;2024-03-29T09:23:49;7.70;;;7.07;;
14688;SDS011;7432;48.728;9.154;2024-03-29T09:26:17;7.23;;;6.80;;
14688;SDS011;7432;48.728;9.154;2024-03-29T09:28:44;7.57;;;7.07;;
14688;SDS011;7432;48.728;9.154;2024-03-29T09:31:12;7.97;;;7.30;;
14688;SDS011;7432;48.728;9.154;2024-03-29T09:33:38;7.93;;;7.43;;
14688;SDS011;7432;48.728;9.154;2024-03-29T09:36:05;7.53;;;7.13;;
14688;SDS011;7432;48.728;9.154;2024-03-29T09:38:32;7.63;;;7.03;;
14688;SDS011;7432;48.728;9.154;2024-03-29T09:41:00;8.47;;;7.77;;
14688;SDS011;7432;48.728;9.154;2024-03-29T09:43:34;7.50;;;7.10;;
14688;SDS011;7432;48.728;9.154;2024-03-29T09:46:00;7.17;;;6.67;;
14688;SDS011;7432;48.728;9.154;2024-03-29T09:48:29;7.50;;;7.00;;
14688;SDS011;7432;48.728;9.154;2024-03-29T09:51:01;7.07;;;6.67;;
14688;SDS011;7432;48.728;9.154;2024-03-29T09:53:29;7.10;;;6.70;;
14688;SDS011;7432;48.728;9.154;2024-03-29T09:55:56;7.70;;;7.10;;
14688;SDS011;7432;48.728;9.154;2024-03-29T09:58:23;7.30;;;6.83;;
14688;SDS011;7432;48.728;9.154;2024-03-29T10:00:49;7.50;;;6.97;;
14688;SDS011;7432;48.728;9.154;2024-03-29T10:03:16;7.03;;;6.63;;
14688;SDS011;7432;48.728;9.154;2024-03-29T10:05:45;6.90;;;6.60;;
14688;SDS011;7432;48.728;9.154;2024-03-29T10:08:12;7.50;;;6.90;;
14688;SDS011;7432;48.728;9.154;2024-03-29T10:10:40;7.80;;;7.13;;
14688;SDS011;7432;48.728;9.154;2024-03-29T10:13:07;7.47;;;7.00;;
14688;SDS011;7432;48.728;9.154;2024-03-29T10:15:33;7.90;;;7.40;;
14688;SDS011;7432;48.728;9.154;2024-03-29T10:18:02;8.63;;;7.83;;
14688;SDS011;7432;48.728;9.154;2024-03-29T10:20:29;8.17;;;7.37;;
14688;SDS011;7432;48.728;9.154;2024-03-29T10:22:57;7.90;;;7.40;;
14688;SDS011;7432;48.728;9.154;2024-03-29T10:25:27;8.17;;;7.57;;
14688;SDS011;7432;48.728;9.154;2024-03-29T10:27:57;8.50;;;7.80;;
14688;SDS011;7432;48.728;9.154;2024-03-29T10:30:24;8.30;;;7.90;;
14688;SDS011;7432;48.728;9.154;2024-03-29T10:32:51;8.63;;;8.13;;
14688;SDS011;7432;48.728;9.154;2024-03-29T10:35:18;8.30;;;7.80;;
14688;SDS011;7432;48.728;9.154;2024-03-29T10:37:45;8.60;;;8.10;;
14688;SDS011;7432;48.728;9.154;2024-03-29T10:40:13;8.73;;;8.13;;
14688;SDS011;7432;48.728;9.154;2024-03-29T10:42:42;8.40;;;8.00;;
14688;SDS011;7432;48.728;9.154;2024-03-29T10:45:10;8.70;;;8.10;;
14688;SDS011;7432;48.728;9.154;2024-03-29T10:47:36;8.70;;;8.20;;
14688;SDS011;7432;48.728;9.154;2024-03-29T10:50:06;8.93;;;8.33;;
14688;SDS011;7432;48.728;9.154;2024-03-29T10:52:36;9.67;;;8.77;;
14688;SDS011;7432;48.728;9.154;2024-03-29T10:55:04;8.83;;;8.23;;
14688;SDS011;7432;48.728;9.154;2024-03-29T10:57:32;9.63;;;8.83;;
14688;SDS011;7432;48.728;9.154;2024-03-29T11:00:02;8.93;;;8.43;;
14688;SDS011;7432;48.728;9.154;2024-03-29T11:02:33;9.27;;;8.70;;
14688;SDS011;7432;48.728;9.154;2024-03-29T11:05:06;10.17;;;9.47;;
14688;SDS011;7432;48.728;9.154;2024-03-29T11:07:38;10.87;;;9.90;;
14688;SDS011;7432;48.728;9.154;2024-03-29T11:10:06;11.87;;;10.97;;
14688;SDS011;7432;48.728;9.154;2024-03-29T11:12:41;11.33;;;10.63;;
14688;SDS011;7432;48.728;9.154;2024-03-29T11:15:15;12.03;;;11.03;;
14688;SDS011;7432;48.728;9.154;2024-03-29T11:17:48;8.57;;;7.97;;
14688;SDS011;7432;48.728;9.154;2024-03-29T11:20:16;8.57;;;8.07;;
14688;SDS011;7432;48.728;9.154;2024-03-29T11:22:49;9.20;;;8.70;;
14688;SDS011;7432;48.728;9.154;2024-03-29T11:25:16;8.97;;;8.47;;
14688;SDS011;7432;48.728;9.154;2024-03-29T11:27:43;8.50;;;8.00;;
14688;SDS011;7432;48.728;9.154;2024-03-29T11:30:16;8.63;;;8.20;;
14688;SDS011;7432;48.728;9.154;2024-03-29T11:32:43;9.00;;;8.50;;
14688;SDS011;7432;48.728;9.154;2024-03-29T11:35:13;8.97;;;8.47;;
14688;SDS011;7432;48.728;9.154;2024-03-29T11:37:40;9.17;;;8.67;;
14688;SDS011;7432;48.728;9.154;2024-03-29T11:40:07;8.90;;;8.50;;
14688;SDS011;7432;48.728;9.154;2024-03-29T11:42:37;9.27;;;8.73;;
14688;SDS011;7432;48.728;9.154;2024-03-29T11:45:06;9.23;;;8.73;;
14688;SDS011;7432;48.728;9.154;2024-03-29T11:47:35;9.70;;;9.20;;
14688;SDS011;7432;48.728;9.154;2024-03-29T11:50:02;9.10;;;8.60;;
14688;SDS011;7432;48.728;9.154;2024-03-29T11:52:29;8.93;;;8.50;;
14688;SDS011;7432;48.728;9.154;2024-03-29T11:54:55;8.77;;;8.30;;
14688;SDS011;7432;48.728;9.154;2024-03-29T11:57:22;8.33;;;7.93;;
14688;SDS011;7432;48.728;9.154;2024-03-29T11:59:49;8.27;;;7.77;;
14688;SDS011;7432;48.728;9.154;2024-03-29T12:02:16;8.57;;;8.10;;
14688;SDS011;7432;48.728;9.154;2024-03-29T12:04:43;8.70;;;8.20;;
14688;SDS011;7432;48.728;9.154;2024-03-29T12:07:10;8.03;;;7.53;;
14688;SDS011;7432;48.728;9.154;2024-03-29T12:09:37;8.00;;;7.60;;
14688;SDS011;7432;48.728;9.154;2024-03-29T12:12:04;8.40;;;7.90;;
14688;SDS011;7432;48.728;9.154;2024-03-29T12:14:34;8.63;;;8.23;;
14688;SDS011;7432;48.728;9.154;2024-03-29T12:17:03;8.60;;;8.20;;
14688;SDS011;7432;48.728;9.154;2024-03-29T12:19:36;8.80;;;8.40;;
14688;SDS011;7432;48.728;9.154;2024-03-29T12:22:04;9.10;;;8.60;;
14688;SDS011;7432;48.728;9.154;2024-03-29T12:24:30;8.87;;;8.43;;
14688;SDS011;7432;48.728;9.154;2024-03-29T12:26:57;9.27;;;8.50;;
14688;SDS011;7432;48.728;9.154;2024-03-29T12:29:23;8.87;;;8.37;;
14688;SDS011;7432;48.728;9.154;2024-03-29T12:31:55;8.87;;;8.37;;
14688;SDS011;7432;48.728;9.154;2024-03-29T12:34:22;9.23;;;8.73;;
14688;SDS011;7432;48.728;9.154;2024-03-29T12:36:50;8.70;;;8.10;;
14688;SDS011;7432;48.728;9.154;2024-03-29T12:39:16;9.23;;;8.47;;
14688;SDS011;7432;48.728;9.154;2024-03-29T12:41:46;8.90;;;8.40;;
14688;SDS011;7432;48.728;9.154;2024-03-29T12:44:12;8.77;;;8.27;;
14688;SDS011;7432;48.728;9.154;2024-03-29T12:46:39;8.73;;;8.23;;
14688;SDS011;7432;48.728;9.154;2024-03-29T12:49:05;8.73;;;8.23;;
14688;SDS011;7432;48.728;9.154;2024-03-29T12:51:32;9.23;;;8.63;;
14688;SDS011;7432;48.728;9.154;2024-03-29T12:54:02;9.10;;;8.60;;
14688;SDS011;7432;48.728;9.154;2024-03-29T12:56:29;9.70;;;9.10;;
14688;SDS011;7432;48.728;9.154;2024-03-29T12:58:55;10.03;;;9.30;;
14688;SDS011;7432;48.728;9.154;2024-03-29T13:01:22;9.40;;;8.90;;
14688;SDS011;7432;48.728;9.154;2024-03-29T13:03:48;10.13;;;9.43;;
14688;SDS011;7432;48.728;9.154;2024-03-29T13:06:15;9.97;;;9.37;;
14688;SDS011;7432;48.728;9.154;2024-03-29T13:08:41;9.30;;;8.70;;
14688;SDS011;7432;48.728;9.154;2024-03-29T13:11:09;13.40;;;12.30;;
14688;SDS011;7432;48.728;9.154;2024-03-29T13:13:36;10.13;;;9.43;;
14688;SDS011;7432;48.728;9.154;2024-03-29T13:16:02;9.80;;;9.10;;
14688;SDS011;7432;48.728;9.154;2024-03-29T13:18:29;9.23;;;8.73;;
14688;SDS011;7432;48.728;9.154;2024-03-29T13:20:55;9.70;;;9.10;;
14688;SDS011;7432;48.728;9.154;2024-03-29T13:23:24;9.70;;;9.20;;
14688;SDS011;7432;48.728;9.154;2024-03-29T13:25:50;9.50;;;8.90;;
14688;SDS011;7432;48.728;9.154;2024-03-29T13:28:21;9.23;;;8.73;;
14688;SDS011;7432;48.728;9.154;2024-03-29T13:30:47;9.03;;;8.53;;
14688;SDS011;7432;48.728;9.154;2024-03-29T13:33:16;9.00;;;8.50;;
14688;SDS011;7432;48.728;9.154;2024-03-29T13:35:42;8.93;;;8.43;;
14688;SDS011;7432;48.728;9.154;2024-03-29T13:38:10;9.80;;;9.10;;
14688;SDS011;7432;48.728;9.154;2024-03-29T13:40:37;9.87;;;9.27;;
14688;SDS011;7432;48.728;9.154;2024-03-29T13:43:04;9.73;;;9.10;;
14688;SDS011;7432;48.728;9.154;2024-03-29T13:45:33;9.30;;;8.80;;
14688;SDS011;7432;48.728;9.154;2024-03-29T13:47:59;9.13;;;8.63;;
14688;SDS011;7432;48.728;9.154;2024-03-29T13:50:26;8.93;;;8.43;;
14688;SDS011;7432;48.728;9.154;2024-03-29T13:52:52;9.43;;;8.93;;
14688;SDS011;7432;48.728;9.154;2024-03-29T13:55:20;9.40;;;8.83;;
14688;SDS011;7432;48.728;9.154;2024-03-29T13:57:46;9.57;;;8.77;;
14688;SDS011;7432;48.728;9.154;2024-03-29T14:00:13;8.23;;;7.83;;
14688;SDS011;7432;48.728;9.154;2024-03-29T14:02:43;9.10;;;8.60;;
14688;SDS011;7432;48.728;9.154;2024-03-29T14:05:09;9.73;;;9.03;;
14688;SDS011;7432;48.728;9.154;2024-03-29T14:07:37;8.97;;;8.47;;
14688;SDS011;7432;48.728;9.154;2024-03-29T14:10:04;8.60;;;8.10;;
14688;SDS011;7432;48.728;9.154;2024-03-29T14:12:32;9.27;;;8.77;;
14688;SDS011;7432;48.728;9.154;2024-03-29T14:14:58;8.97;;;8.47;;
14688;SDS011;7432;48.728;9.154;2024-03-29T14:17:26;9.10;;;8.60;;
14688;SDS011;7432;48.728;9.154;2024-03-29T14:19:54;8.90;;;8.50;;
14688;SDS011;7432;48.728;9.154;2024-03-29T14:22:20;9.80;;;9.20;;
14688;SDS011;7432;48.728;9.154;2024-03-29T14:24:48;9.70;;;9.10;;
14688;SDS011;7432;48.728;9.154;2024-03-29T14:27:15;9.93;;;9.27;;
14688;SDS011;7432;48.728;9.154;2024-03-29T14:29:41;8.97;;;8.40;;
14688;SDS011;7432;48.728;9.154;2024-03-29T14:32:09;8.73;;;8.13;;
14688;SDS011;7432;48.728;9.154;2024-03-29T14:34:36;8.73;;;8.23;;
14688;SDS011;7432;48.728;9.154;2024-03-29T14:37:11;8.60;;;8.17;;
14688;SDS011;7432;48.728;9.154;2024-03-29T14:39:40;8.90;;;8.20;;
14688;SDS011;7432;48.728;9.154;2024-03-29T14:42:07;8.13;;;7.60;;
14688;SDS011;7432;48.728;9.154;2024-03-29T14:44:36;8.40;;;7.90;;
14688;SDS011;7432;48.728;9.154;2024-03-29T14:47:03;8.80;;;8.30;;
14688;SDS011;7432;48.728;9.154;2024-03-29T14:49:31;9.13;;;8.63;;
14688;SDS011;7432;48.728;9.154;2024-03-29T14:51:57;8.90;;;8.40;;
14688;SDS011;7432;48.728;9.154;2024-03-29T14:54:25;8.80;;;8.40;;
14688;SDS011;7432;48.728;9.154;2024-03-29T14:56:51;8.70;;;8.20;;
14688;SDS011;7432;48.728;9.154;2024-03-29T14:59:18;8.30;;;7.90;;